RPB7431 MROC-SKRG
Flight info
| Callsign | RPB7431 |
|---|---|
| Flight time | 1h 33m |
| Altitude | 37000 |
| Route | ATENA4 ISEBA UL423 ILTUR UQ122 ARMUM DCT ISVON ISVON4A |
| Aircraft | B738/M-SDE2E3FGHIRWXY/LB1 |
Departure
| Time | 2026-04-29 15:26 |
|---|---|
| Airport | Juan Santamaría International Airport (MROC) |
Arrival
| Time | 2026-04-29 17:00 |
|---|---|
| Airport | Jose Maria Córdova International Airport (SKRG) |
| Time | Latitude | Longitude | Altitude | Speed | Heading |
|---|---|---|---|---|---|
| 2026-04-29 14:43 | 9.99755 | -84.20315 | 3033 ft | 0 kts | 339° |
| 2026-04-29 15:16 | 9.99741 | -84.20309 | 3035 ft | 4 kts | 340° |
| 2026-04-29 15:16 | 9.99721 | -84.20302 | 3034 ft | 4 kts | 322° |
| 2026-04-29 15:16 | 9.99713 | -84.20284 | 3032 ft | 4 kts | 254° |
| 2026-04-29 15:17 | 9.99721 | -84.20259 | 3032 ft | 4 kts | 249° |
| 2026-04-29 15:17 | 9.99726 | -84.20246 | 3034 ft | 0 kts | 249° |
| 2026-04-29 15:20 | 9.99723 | -84.20254 | 3031 ft | 3 kts | 249° |
| 2026-04-29 15:20 | 9.99713 | -84.20282 | 3032 ft | 6 kts | 249° |
| 2026-04-29 15:21 | 9.99693 | -84.20334 | 3034 ft | 10 kts | 249° |
| 2026-04-29 15:21 | 9.99666 | -84.20407 | 3036 ft | 13 kts | 249° |
| 2026-04-29 15:21 | 9.99631 | -84.20499 | 3034 ft | 15 kts | 249° |
| 2026-04-29 15:21 | 9.99591 | -84.20606 | 3036 ft | 17 kts | 250° |
| 2026-04-29 15:22 | 9.99546 | -84.20727 | 3033 ft | 19 kts | 249° |
| 2026-04-29 15:22 | 9.99497 | -84.20859 | 3032 ft | 21 kts | 250° |
| 2026-04-29 15:22 | 9.99449 | -84.20992 | 3025 ft | 21 kts | 248° |
| 2026-04-29 15:22 | 9.99396 | -84.21126 | 3006 ft | 22 kts | 249° |
| 2026-04-29 15:23 | 9.99348 | -84.21257 | 3002 ft | 18 kts | 249° |
| 2026-04-29 15:23 | 9.99299 | -84.21387 | 2991 ft | 21 kts | 249° |
| 2026-04-29 15:23 | 9.99242 | -84.21541 | 2978 ft | 25 kts | 249° |
| 2026-04-29 15:23 | 9.99176 | -84.21715 | 2969 ft | 27 kts | 249° |
| 2026-04-29 15:24 | 9.99109 | -84.21894 | 2960 ft | 28 kts | 250° |
| 2026-04-29 15:24 | 9.99103 | -84.22060 | 2955 ft | 12 kts | 257° |
| 2026-04-29 15:24 | 9.99073 | -84.22149 | 2946 ft | 15 kts | 250° |
| 2026-04-29 15:24 | 9.98992 | -84.22197 | 2942 ft | 15 kts | 166° |
| 2026-04-29 15:25 | 9.98916 | -84.22153 | 2945 ft | 8 kts | 116° |
| 2026-04-29 15:25 | 9.98930 | -84.22106 | 2944 ft | 7 kts | 56° |
| 2026-04-29 15:25 | 9.98937 | -84.22091 | 2949 ft | 6 kts | 67° |
| 2026-04-29 15:25 | 9.99030 | -84.21844 | 2967 ft | 70 kts | 70° |
| 2026-04-29 15:26 | 9.99285 | -84.21190 | 3000 ft | 127 kts | 67° |
| 2026-04-29 15:26 | 9.99629 | -84.20193 | 3142 ft | 165 kts | 73° |
| 2026-04-29 15:26 | 9.99997 | -84.19078 | 3968 ft | 169 kts | 72° |
| 2026-04-29 15:26 | 10.00420 | -84.17924 | 4728 ft | 176 kts | 69° |
| 2026-04-29 15:27 | 10.00817 | -84.16764 | 5595 ft | 172 kts | 77° |
| 2026-04-29 15:27 | 10.00638 | -84.15520 | 6142 ft | 197 kts | 114° |
| 2026-04-29 15:27 | 9.99597 | -84.14462 | 6310 ft | 233 kts | 149° |
| 2026-04-29 15:27 | 9.97933 | -84.14130 | 6610 ft | 257 kts | 183° |
| 2026-04-29 15:28 | 9.96275 | -84.14815 | 7162 ft | 264 kts | 219° |
| 2026-04-29 15:28 | 9.95502 | -84.15777 | 7535 ft | 271 kts | 243° |
| 2026-04-29 15:28 | 9.95252 | -84.18333 | 8082 ft | 286 kts | 289° |
| 2026-04-29 15:28 | 9.96177 | -84.20133 | 8688 ft | 293 kts | 302° |
| 2026-04-29 15:29 | 9.97159 | -84.21962 | 9452 ft | 297 kts | 294° |
| 2026-04-29 15:29 | 9.96849 | -84.26074 | 10516 ft | 319 kts | 234° |
| 2026-04-29 15:30 | 9.93653 | -84.29602 | 10901 ft | 361 kts | 226° |
| 2026-04-29 15:30 | 9.91972 | -84.31507 | 11313 ft | 372 kts | 229° |
| 2026-04-29 15:30 | 9.90064 | -84.33271 | 11942 ft | 372 kts | 211° |
| 2026-04-29 15:30 | 9.87685 | -84.34259 | 12598 ft | 373 kts | 191° |
| 2026-04-29 15:31 | 9.85094 | -84.34338 | 13154 ft | 376 kts | 171° |
| 2026-04-29 15:31 | 9.82607 | -84.33526 | 13755 ft | 378 kts | 152° |
| 2026-04-29 15:31 | 9.80339 | -84.32158 | 14260 ft | 382 kts | 148° |
| 2026-04-29 15:31 | 9.78077 | -84.30708 | 14705 ft | 387 kts | 148° |
| 2026-04-29 15:32 | 9.75782 | -84.29264 | 15238 ft | 388 kts | 148° |
| 2026-04-29 15:32 | 9.73489 | -84.27805 | 15744 ft | 391 kts | 144° |
| 2026-04-29 15:32 | 9.71420 | -84.25993 | 16205 ft | 395 kts | 136° |
| 2026-04-29 15:32 | 9.69652 | -84.23852 | 16645 ft | 400 kts | 120° |
| 2026-04-29 15:33 | 9.68655 | -84.21217 | 17139 ft | 404 kts | 102° |
| 2026-04-29 15:33 | 9.68285 | -84.18383 | 17627 ft | 407 kts | 97° |
| 2026-04-29 15:33 | 9.68000 | -84.15511 | 18032 ft | 412 kts | 96° |
| 2026-04-29 15:33 | 9.67724 | -84.12602 | 18444 ft | 416 kts | 96° |
| 2026-04-29 15:34 | 9.67441 | -84.09678 | 18849 ft | 418 kts | 97° |
| 2026-04-29 15:34 | 9.67147 | -84.06728 | 19176 ft | 423 kts | 97° |
| 2026-04-29 15:34 | 9.66841 | -84.03750 | 19575 ft | 424 kts | 97° |
| 2026-04-29 15:34 | 9.66529 | -84.00772 | 20017 ft | 426 kts | 97° |
| 2026-04-29 15:35 | 9.66210 | -83.97782 | 20354 ft | 430 kts | 97° |
| 2026-04-29 15:35 | 9.65884 | -83.94758 | 20698 ft | 433 kts | 97° |
| 2026-04-29 15:35 | 9.65556 | -83.91716 | 21081 ft | 435 kts | 98° |
| 2026-04-29 15:35 | 9.65225 | -83.88658 | 21440 ft | 438 kts | 98° |
| 2026-04-29 15:36 | 9.64892 | -83.85582 | 21794 ft | 440 kts | 98° |
| 2026-04-29 15:36 | 9.64557 | -83.82486 | 22110 ft | 444 kts | 98° |
| 2026-04-29 15:36 | 9.64221 | -83.79373 | 22412 ft | 446 kts | 98° |
| 2026-04-29 15:36 | 9.63881 | -83.76235 | 22696 ft | 450 kts | 98° |
| 2026-04-29 15:37 | 9.63539 | -83.73082 | 23046 ft | 451 kts | 98° |
| 2026-04-29 15:37 | 9.63194 | -83.69905 | 23324 ft | 454 kts | 98° |
| 2026-04-29 15:37 | 9.62965 | -83.67801 | 23513 ft | 456 kts | 98° |
| 2026-04-29 15:37 | 9.62500 | -83.63515 | 23880 ft | 459 kts | 98° |
| 2026-04-29 15:38 | 9.62268 | -83.61384 | 24042 ft | 460 kts | 98° |
| 2026-04-29 15:38 | 9.61917 | -83.58157 | 24310 ft | 461 kts | 99° |
| 2026-04-29 15:38 | 9.61565 | -83.54922 | 24584 ft | 463 kts | 99° |
| 2026-04-29 15:38 | 9.61211 | -83.51676 | 24801 ft | 466 kts | 99° |
| 2026-04-29 15:39 | 9.60852 | -83.48402 | 25025 ft | 467 kts | 99° |
| 2026-04-29 15:39 | 9.60494 | -83.45125 | 25285 ft | 469 kts | 99° |
| 2026-04-29 15:39 | 9.60135 | -83.41830 | 25519 ft | 471 kts | 99° |
| 2026-04-29 15:39 | 9.59774 | -83.38526 | 25771 ft | 472 kts | 99° |
| 2026-04-29 15:40 | 9.59411 | -83.35211 | 26010 ft | 474 kts | 99° |
| 2026-04-29 15:40 | 9.59052 | -83.31923 | 26231 ft | 476 kts | 99° |
| 2026-04-29 15:40 | 9.58685 | -83.28581 | 26466 ft | 478 kts | 99° |
| 2026-04-29 15:40 | 9.58312 | -83.25183 | 26689 ft | 480 kts | 99° |
| 2026-04-29 15:41 | 9.57941 | -83.21809 | 26834 ft | 483 kts | 99° |
| 2026-04-29 15:41 | 9.57574 | -83.18466 | 27062 ft | 484 kts | 99° |
| 2026-04-29 15:41 | 9.57201 | -83.15071 | 27266 ft | 486 kts | 99° |
| 2026-04-29 15:41 | 9.56827 | -83.11672 | 27497 ft | 487 kts | 100° |
| 2026-04-29 15:42 | 9.56450 | -83.08257 | 27722 ft | 488 kts | 100° |
| 2026-04-29 15:42 | 9.56072 | -83.04835 | 27888 ft | 490 kts | 100° |
| 2026-04-29 15:42 | 9.55693 | -83.01402 | 28069 ft | 491 kts | 100° |
| 2026-04-29 15:42 | 9.55312 | -82.97958 | 28257 ft | 493 kts | 100° |
| 2026-04-29 15:43 | 9.54931 | -82.94508 | 28434 ft | 494 kts | 100° |
| 2026-04-29 15:43 | 9.54547 | -82.91043 | 28605 ft | 496 kts | 100° |
| 2026-04-29 15:43 | 9.54058 | -82.87590 | 28730 ft | 494 kts | 108° |
| 2026-04-29 15:43 | 9.52804 | -82.84392 | 28896 ft | 485 kts | 124° |
| 2026-04-29 15:44 | 9.51156 | -82.81518 | 29178 ft | 482 kts | 125° |
| 2026-04-29 15:44 | 9.49440 | -82.78600 | 29426 ft | 482 kts | 125° |
| 2026-04-29 15:44 | 9.47721 | -82.75684 | 29677 ft | 482 kts | 125° |
| 2026-04-29 15:44 | 9.46013 | -82.72765 | 29931 ft | 482 kts | 125° |
| 2026-04-29 15:45 | 9.44315 | -82.69839 | 30199 ft | 481 kts | 125° |
| 2026-04-29 15:45 | 9.42633 | -82.66917 | 30454 ft | 480 kts | 125° |
| 2026-04-29 15:45 | 9.40962 | -82.63998 | 30695 ft | 479 kts | 125° |
| 2026-04-29 15:45 | 9.39293 | -82.61077 | 30913 ft | 478 kts | 124° |
| 2026-04-29 15:46 | 9.37628 | -82.58160 | 31099 ft | 479 kts | 124° |
| 2026-04-29 15:46 | 9.35959 | -82.55237 | 31306 ft | 479 kts | 124° |
| 2026-04-29 15:46 | 9.34294 | -82.52321 | 31571 ft | 478 kts | 124° |
| 2026-04-29 15:46 | 9.32634 | -82.49415 | 31868 ft | 476 kts | 124° |
| 2026-04-29 15:47 | 9.30976 | -82.46514 | 32170 ft | 475 kts | 125° |
| 2026-04-29 15:47 | 9.29323 | -82.43623 | 32394 ft | 475 kts | 125° |
| 2026-04-29 15:47 | 9.27663 | -82.40724 | 32621 ft | 475 kts | 125° |
| 2026-04-29 15:47 | 9.26008 | -82.37831 | 32880 ft | 475 kts | 125° |
| 2026-04-29 15:48 | 9.24352 | -82.34939 | 33161 ft | 473 kts | 125° |
| 2026-04-29 15:48 | 9.22725 | -82.32097 | 33435 ft | 472 kts | 125° |
| 2026-04-29 15:48 | 9.21079 | -82.29223 | 33711 ft | 471 kts | 125° |
| 2026-04-29 15:48 | 9.19437 | -82.26356 | 33971 ft | 471 kts | 125° |
| 2026-04-29 15:49 | 9.17795 | -82.23491 | 34202 ft | 470 kts | 125° |
| 2026-04-29 15:49 | 9.16156 | -82.20631 | 34429 ft | 470 kts | 125° |
| 2026-04-29 15:49 | 9.14518 | -82.17775 | 34658 ft | 469 kts | 125° |
| 2026-04-29 15:49 | 9.12883 | -82.14922 | 34904 ft | 468 kts | 125° |
| 2026-04-29 15:50 | 9.11250 | -82.12075 | 35111 ft | 467 kts | 125° |
| 2026-04-29 15:50 | 9.09620 | -82.09233 | 35328 ft | 467 kts | 125° |
| 2026-04-29 15:50 | 9.07991 | -82.06394 | 35565 ft | 466 kts | 125° |
| 2026-04-29 15:50 | 9.06366 | -82.03563 | 35780 ft | 465 kts | 125° |
| 2026-04-29 15:51 | 9.04741 | -82.00732 | 35993 ft | 464 kts | 125° |
| 2026-04-29 15:51 | 9.03121 | -81.97910 | 36199 ft | 464 kts | 125° |
| 2026-04-29 15:51 | 9.01501 | -81.95090 | 36392 ft | 463 kts | 125° |
| 2026-04-29 15:51 | 8.99886 | -81.92277 | 36607 ft | 462 kts | 125° |
| 2026-04-29 15:52 | 8.98271 | -81.89466 | 36794 ft | 462 kts | 125° |
| 2026-04-29 15:52 | 8.96657 | -81.86658 | 36958 ft | 462 kts | 125° |
| 2026-04-29 15:52 | 8.95035 | -81.83839 | 36960 ft | 465 kts | 125° |
| 2026-04-29 15:53 | 8.91812 | -81.78233 | 36971 ft | 462 kts | 125° |
| 2026-04-29 15:53 | 8.88587 | -81.72623 | 36971 ft | 459 kts | 125° |
| 2026-04-29 15:54 | 8.85384 | -81.67055 | 36974 ft | 457 kts | 126° |
| 2026-04-29 15:54 | 8.82191 | -81.61510 | 36977 ft | 456 kts | 126° |
| 2026-04-29 15:55 | 8.79000 | -81.55972 | 36978 ft | 456 kts | 126° |
| 2026-04-29 15:55 | 8.75796 | -81.50416 | 36987 ft | 460 kts | 126° |
| 2026-04-29 15:56 | 8.72551 | -81.44791 | 36973 ft | 465 kts | 126° |
| 2026-04-29 15:56 | 8.69287 | -81.39131 | 36965 ft | 467 kts | 126° |
| 2026-04-29 15:57 | 8.66012 | -81.33451 | 36973 ft | 468 kts | 125° |
| 2026-04-29 15:57 | 8.62734 | -81.27770 | 36964 ft | 468 kts | 125° |
| 2026-04-29 15:58 | 8.59455 | -81.22089 | 36960 ft | 467 kts | 126° |
| 2026-04-29 15:58 | 8.56183 | -81.16424 | 36956 ft | 465 kts | 126° |
| 2026-04-29 15:59 | 8.52928 | -81.10790 | 36947 ft | 462 kts | 126° |
| 2026-04-29 15:59 | 8.49697 | -81.05202 | 36954 ft | 460 kts | 126° |
| 2026-04-29 16:00 | 8.46475 | -80.99633 | 36940 ft | 458 kts | 126° |
| 2026-04-29 16:00 | 8.43258 | -80.94075 | 36940 ft | 457 kts | 126° |
| 2026-04-29 16:01 | 8.40071 | -80.88569 | 36928 ft | 456 kts | 126° |
| 2026-04-29 16:01 | 8.36869 | -80.83041 | 36931 ft | 456 kts | 126° |
| 2026-04-29 16:02 | 8.33667 | -80.77515 | 36923 ft | 456 kts | 126° |
| 2026-04-29 16:02 | 8.30462 | -80.71986 | 36921 ft | 456 kts | 126° |
| 2026-04-29 16:03 | 8.27251 | -80.66449 | 36914 ft | 456 kts | 126° |
| 2026-04-29 16:03 | 8.24037 | -80.60908 | 36904 ft | 457 kts | 126° |
| 2026-04-29 16:04 | 8.20841 | -80.55403 | 36920 ft | 458 kts | 126° |
| 2026-04-29 16:04 | 8.17607 | -80.49832 | 36917 ft | 460 kts | 126° |
| 2026-04-29 16:05 | 8.14364 | -80.44249 | 36909 ft | 462 kts | 126° |
| 2026-04-29 16:05 | 8.11112 | -80.38649 | 36904 ft | 462 kts | 126° |
| 2026-04-29 16:06 | 8.07859 | -80.33051 | 36903 ft | 462 kts | 126° |
| 2026-04-29 16:06 | 8.04607 | -80.27458 | 36903 ft | 462 kts | 126° |
| 2026-04-29 16:07 | 8.01357 | -80.21870 | 36908 ft | 461 kts | 126° |
| 2026-04-29 16:07 | 7.98114 | -80.16297 | 36907 ft | 460 kts | 126° |
| 2026-04-29 16:08 | 7.94876 | -80.10734 | 36907 ft | 459 kts | 126° |
| 2026-04-29 16:08 | 7.91644 | -80.05183 | 36908 ft | 458 kts | 126° |
| 2026-04-29 16:09 | 7.88415 | -79.99642 | 36909 ft | 458 kts | 126° |
| 2026-04-29 16:09 | 7.85212 | -79.94146 | 36907 ft | 457 kts | 126° |
| 2026-04-29 16:10 | 7.81989 | -79.88618 | 36909 ft | 457 kts | 125° |
| 2026-04-29 16:10 | 7.78761 | -79.83084 | 36907 ft | 457 kts | 125° |
| 2026-04-29 16:11 | 7.75533 | -79.77552 | 36908 ft | 458 kts | 125° |
| 2026-04-29 16:11 | 7.72303 | -79.72018 | 36907 ft | 458 kts | 125° |
| 2026-04-29 16:12 | 7.69065 | -79.66472 | 36903 ft | 459 kts | 125° |
| 2026-04-29 16:12 | 7.65820 | -79.60917 | 36906 ft | 460 kts | 125° |
| 2026-04-29 16:13 | 7.62569 | -79.55355 | 36900 ft | 461 kts | 125° |
| 2026-04-29 16:13 | 7.59316 | -79.49789 | 36903 ft | 461 kts | 125° |
| 2026-04-29 16:14 | 7.56058 | -79.44217 | 36904 ft | 462 kts | 125° |
| 2026-04-29 16:14 | 7.52796 | -79.38640 | 36902 ft | 462 kts | 125° |
| 2026-04-29 16:15 | 7.49532 | -79.33063 | 36901 ft | 462 kts | 125° |
| 2026-04-29 16:15 | 7.46275 | -79.27498 | 36902 ft | 462 kts | 125° |
| 2026-04-29 16:16 | 7.43002 | -79.21910 | 36901 ft | 462 kts | 125° |
| 2026-04-29 16:16 | 7.39735 | -79.16333 | 36899 ft | 462 kts | 125° |
| 2026-04-29 16:17 | 7.36466 | -79.10753 | 36898 ft | 462 kts | 125° |
| 2026-04-29 16:17 | 7.33215 | -79.05208 | 36897 ft | 462 kts | 125° |
| 2026-04-29 16:18 | 7.29945 | -78.99633 | 36894 ft | 462 kts | 124° |
| 2026-04-29 16:18 | 7.26679 | -78.94065 | 36896 ft | 462 kts | 124° |
| 2026-04-29 16:19 | 7.23412 | -78.88497 | 36895 ft | 462 kts | 124° |
| 2026-04-29 16:19 | 7.20143 | -78.82927 | 36897 ft | 461 kts | 124° |
| 2026-04-29 16:20 | 7.16874 | -78.77360 | 36895 ft | 461 kts | 124° |
| 2026-04-29 16:20 | 7.13607 | -78.71798 | 36888 ft | 462 kts | 124° |
| 2026-04-29 16:21 | 7.10337 | -78.66237 | 36892 ft | 462 kts | 124° |
| 2026-04-29 16:21 | 7.07056 | -78.60670 | 36892 ft | 462 kts | 124° |
| 2026-04-29 16:22 | 7.03794 | -78.55137 | 36890 ft | 462 kts | 124° |
| 2026-04-29 16:22 | 7.00514 | -78.49572 | 36894 ft | 462 kts | 123° |
| 2026-04-29 16:23 | 6.97230 | -78.44000 | 36893 ft | 463 kts | 123° |
| 2026-04-29 16:23 | 6.94493 | -78.39358 | 36894 ft | 463 kts | 123° |
| 2026-04-29 16:24 | 6.91204 | -78.33781 | 36893 ft | 464 kts | 123° |
| 2026-04-29 16:24 | 6.87906 | -78.28191 | 36895 ft | 464 kts | 123° |
| 2026-04-29 16:25 | 6.84605 | -78.22597 | 36895 ft | 465 kts | 123° |
| 2026-04-29 16:25 | 6.81008 | -78.17212 | 36904 ft | 463 kts | 128° |
| 2026-04-29 16:26 | 6.77154 | -78.11992 | 36889 ft | 464 kts | 129° |
| 2026-04-29 16:26 | 6.73294 | -78.06776 | 36895 ft | 465 kts | 129° |
| 2026-04-29 16:27 | 6.69459 | -78.01534 | 36891 ft | 466 kts | 128° |
| 2026-04-29 16:27 | 6.65650 | -77.96298 | 36894 ft | 466 kts | 128° |
| 2026-04-29 16:28 | 6.61823 | -77.91030 | 36890 ft | 466 kts | 128° |
| 2026-04-29 16:28 | 6.57992 | -77.85761 | 36893 ft | 467 kts | 128° |
| 2026-04-29 16:29 | 6.54162 | -77.80497 | 36889 ft | 467 kts | 128° |
| 2026-04-29 16:29 | 6.50329 | -77.75229 | 36890 ft | 467 kts | 128° |
| 2026-04-29 16:30 | 6.46498 | -77.69968 | 36892 ft | 466 kts | 128° |
| 2026-04-29 16:30 | 6.42666 | -77.64705 | 36889 ft | 466 kts | 129° |
| 2026-04-29 16:31 | 6.38832 | -77.59443 | 36889 ft | 466 kts | 129° |
| 2026-04-29 16:31 | 6.35002 | -77.54186 | 36890 ft | 466 kts | 129° |
| 2026-04-29 16:32 | 6.31173 | -77.48933 | 36885 ft | 465 kts | 129° |
| 2026-04-29 16:32 | 6.27370 | -77.43717 | 36887 ft | 465 kts | 129° |
| 2026-04-29 16:33 | 6.21633 | -77.35851 | 36887 ft | 465 kts | 129° |
| 2026-04-29 16:33 | 6.17799 | -77.30597 | 36890 ft | 466 kts | 129° |
| 2026-04-29 16:34 | 6.13966 | -77.25344 | 36887 ft | 467 kts | 129° |
| 2026-04-29 16:34 | 6.10124 | -77.20082 | 36889 ft | 467 kts | 129° |
| 2026-04-29 16:35 | 6.06280 | -77.14816 | 36893 ft | 467 kts | 128° |
| 2026-04-29 16:35 | 6.02440 | -77.09559 | 36886 ft | 467 kts | 128° |
| 2026-04-29 16:36 | 5.98601 | -77.04305 | 36891 ft | 466 kts | 128° |
| 2026-04-29 16:36 | 5.94769 | -76.99060 | 36899 ft | 466 kts | 128° |
| 2026-04-29 16:37 | 5.90933 | -76.93812 | 36887 ft | 466 kts | 128° |
| 2026-04-29 16:37 | 5.87747 | -76.89455 | 36897 ft | 466 kts | 128° |
| 2026-04-29 16:38 | 5.83289 | -76.83359 | 36900 ft | 466 kts | 128° |
| 2026-04-29 16:38 | 5.79449 | -76.78109 | 36902 ft | 466 kts | 128° |
| 2026-04-29 16:39 | 5.75612 | -76.72864 | 36912 ft | 466 kts | 128° |
| 2026-04-29 16:39 | 5.71777 | -76.67623 | 36911 ft | 466 kts | 128° |
| 2026-04-29 16:40 | 5.69848 | -76.64979 | 36677 ft | 470 kts | 127° |
| 2026-04-29 16:40 | 5.68136 | -76.62156 | 36109 ft | 474 kts | 118° |
| 2026-04-29 16:40 | 5.66704 | -76.59231 | 35525 ft | 473 kts | 117° |
| 2026-04-29 16:40 | 5.65301 | -76.56244 | 34864 ft | 474 kts | 116° |
| 2026-04-29 16:41 | 5.63897 | -76.53239 | 34176 ft | 475 kts | 117° |
| 2026-04-29 16:41 | 5.62480 | -76.50239 | 33420 ft | 476 kts | 117° |
| 2026-04-29 16:41 | 5.61045 | -76.47238 | 32676 ft | 476 kts | 117° |
| 2026-04-29 16:41 | 5.59606 | -76.44256 | 32126 ft | 472 kts | 117° |
| 2026-04-29 16:42 | 5.58177 | -76.41305 | 31615 ft | 468 kts | 117° |
| 2026-04-29 16:42 | 5.56759 | -76.38380 | 31128 ft | 464 kts | 117° |
| 2026-04-29 16:42 | 5.55353 | -76.35477 | 30635 ft | 461 kts | 117° |
| 2026-04-29 16:42 | 5.53955 | -76.32589 | 30137 ft | 458 kts | 116° |
| 2026-04-29 16:43 | 5.52759 | -76.29640 | 29573 ft | 455 kts | 109° |
| 2026-04-29 16:43 | 5.52021 | -76.26564 | 29043 ft | 452 kts | 101° |
| 2026-04-29 16:43 | 5.51476 | -76.23475 | 28530 ft | 447 kts | 101° |
| 2026-04-29 16:43 | 5.50956 | -76.20411 | 28021 ft | 443 kts | 101° |
| 2026-04-29 16:44 | 5.50439 | -76.17375 | 27522 ft | 439 kts | 101° |
| 2026-04-29 16:44 | 5.49917 | -76.14372 | 27032 ft | 435 kts | 101° |
| 2026-04-29 16:44 | 5.49388 | -76.11388 | 26544 ft | 432 kts | 101° |
| 2026-04-29 16:44 | 5.48857 | -76.08432 | 26055 ft | 429 kts | 101° |
| 2026-04-29 16:45 | 5.48325 | -76.05498 | 25561 ft | 426 kts | 101° |
| 2026-04-29 16:45 | 5.47802 | -76.02616 | 25061 ft | 424 kts | 101° |
| 2026-04-29 16:45 | 5.47274 | -75.99713 | 24575 ft | 422 kts | 101° |
| 2026-04-29 16:45 | 5.46750 | -75.96829 | 24100 ft | 419 kts | 101° |
| 2026-04-29 16:46 | 5.46228 | -75.93954 | 23591 ft | 418 kts | 101° |
| 2026-04-29 16:46 | 5.45708 | -75.91092 | 23026 ft | 414 kts | 101° |
| 2026-04-29 16:46 | 5.45197 | -75.88278 | 22514 ft | 406 kts | 101° |
| 2026-04-29 16:46 | 5.44690 | -75.85484 | 22023 ft | 398 kts | 101° |
| 2026-04-29 16:47 | 5.44206 | -75.82820 | 21567 ft | 390 kts | 101° |
| 2026-04-29 16:47 | 5.43723 | -75.80168 | 21126 ft | 383 kts | 101° |
| 2026-04-29 16:47 | 5.43249 | -75.77561 | 20685 ft | 376 kts | 101° |
| 2026-04-29 16:47 | 5.42783 | -75.74997 | 20256 ft | 370 kts | 101° |
| 2026-04-29 16:48 | 5.42324 | -75.72471 | 19833 ft | 365 kts | 101° |
| 2026-04-29 16:48 | 5.41868 | -75.69967 | 19419 ft | 366 kts | 101° |
| 2026-04-29 16:48 | 5.41409 | -75.67448 | 18968 ft | 368 kts | 100° |
| 2026-04-29 16:48 | 5.41275 | -75.64884 | 18387 ft | 374 kts | 82° |
| 2026-04-29 16:49 | 5.42091 | -75.62392 | 17778 ft | 379 kts | 61° |
| 2026-04-29 16:49 | 5.43711 | -75.60317 | 17267 ft | 379 kts | 42° |
| 2026-04-29 16:49 | 5.45903 | -75.58852 | 16823 ft | 377 kts | 29° |
| 2026-04-29 16:49 | 5.48217 | -75.57623 | 16354 ft | 375 kts | 28° |
| 2026-04-29 16:50 | 5.50506 | -75.56451 | 15918 ft | 373 kts | 27° |
| 2026-04-29 16:50 | 5.52809 | -75.55274 | 15478 ft | 370 kts | 28° |
| 2026-04-29 16:50 | 5.55092 | -75.54095 | 15042 ft | 368 kts | 28° |
| 2026-04-29 16:50 | 5.57354 | -75.52913 | 14601 ft | 364 kts | 28° |
| 2026-04-29 16:51 | 5.59561 | -75.51752 | 14401 ft | 350 kts | 28° |
| 2026-04-29 16:51 | 5.61679 | -75.50634 | 14224 ft | 336 kts | 29° |
| 2026-04-29 16:51 | 5.63705 | -75.49561 | 14076 ft | 323 kts | 29° |
| 2026-04-29 16:51 | 5.65662 | -75.48525 | 13928 ft | 311 kts | 29° |
| 2026-04-29 16:52 | 5.67537 | -75.47531 | 13809 ft | 299 kts | 28° |
| 2026-04-29 16:52 | 5.69342 | -75.46573 | 13664 ft | 288 kts | 29° |
| 2026-04-29 16:52 | 5.71075 | -75.45654 | 13540 ft | 281 kts | 29° |
| 2026-04-29 16:52 | 5.72783 | -75.44748 | 13413 ft | 273 kts | 29° |
| 2026-04-29 16:53 | 5.74441 | -75.43870 | 13310 ft | 265 kts | 29° |
| 2026-04-29 16:53 | 5.76056 | -75.43014 | 13195 ft | 260 kts | 29° |
| 2026-04-29 16:53 | 5.77703 | -75.42271 | 13049 ft | 263 kts | 12° |
| 2026-04-29 16:53 | 5.79543 | -75.42172 | 12830 ft | 264 kts | 0° |
| 2026-04-29 16:54 | 5.81377 | -75.42194 | 12552 ft | 263 kts | 1° |
| 2026-04-29 16:54 | 5.83206 | -75.42206 | 12320 ft | 262 kts | 1° |
| 2026-04-29 16:54 | 5.85031 | -75.42211 | 12074 ft | 262 kts | 1° |
| 2026-04-29 16:54 | 5.86851 | -75.42213 | 11825 ft | 261 kts | 1° |
| 2026-04-29 16:55 | 5.88669 | -75.42217 | 11567 ft | 261 kts | 1° |
| 2026-04-29 16:55 | 5.90491 | -75.42222 | 11301 ft | 263 kts | 1° |
| 2026-04-29 16:55 | 5.92333 | -75.42228 | 10982 ft | 267 kts | 1° |
| 2026-04-29 16:55 | 5.94195 | -75.42235 | 10699 ft | 268 kts | 1° |
| 2026-04-29 16:56 | 5.96059 | -75.42240 | 10441 ft | 267 kts | 1° |
| 2026-04-29 16:56 | 5.97878 | -75.42211 | 10204 ft | 263 kts | 2° |
| 2026-04-29 16:56 | 5.99686 | -75.42200 | 9888 ft | 255 kts | 1° |
| 2026-04-29 16:56 | 6.01419 | -75.42212 | 9588 ft | 243 kts | 0° |
| 2026-04-29 16:57 | 6.03045 | -75.42225 | 9289 ft | 225 kts | 1° |
| 2026-04-29 16:57 | 6.04556 | -75.42235 | 9029 ft | 209 kts | 0° |
| 2026-04-29 16:57 | 6.05952 | -75.42244 | 8785 ft | 193 kts | 1° |
| 2026-04-29 16:57 | 6.07229 | -75.42253 | 8610 ft | 179 kts | 1° |
| 2026-04-29 16:58 | 6.08477 | -75.42260 | 8338 ft | 179 kts | 1° |
| 2026-04-29 16:58 | 6.09712 | -75.42267 | 8132 ft | 177 kts | 1° |
| 2026-04-29 16:58 | 6.10941 | -75.42276 | 7888 ft | 176 kts | 1° |
| 2026-04-29 16:58 | 6.12163 | -75.42284 | 7656 ft | 176 kts | 1° |
| 2026-04-29 16:59 | 6.13399 | -75.42292 | 7364 ft | 177 kts | 0° |
| 2026-04-29 16:59 | 6.14627 | -75.42302 | 7104 ft | 174 kts | 0° |
| 2026-04-29 16:59 | 6.15787 | -75.42306 | 6992 ft | 154 kts | 0° |
| 2026-04-29 16:59 | 6.16730 | -75.42311 | 6995 ft | 111 kts | 359° |
| 2026-04-29 17:00 | 6.17286 | -75.42314 | 7019 ft | 49 kts | 0° |
| 2026-04-29 17:00 | 6.17530 | -75.42334 | 7023 ft | 32 kts | 332° |
| 2026-04-29 17:00 | 6.17538 | -75.42504 | 7020 ft | 23 kts | 228° |
| 2026-04-29 17:00 | 6.17422 | -75.42595 | 7016 ft | 13 kts | 218° |
| 2026-04-29 17:01 | 6.17341 | -75.42637 | 7021 ft | 13 kts | 210° |
| 2026-04-29 17:01 | 6.17278 | -75.42698 | 7017 ft | 13 kts | 228° |
| 2026-04-29 17:01 | 6.17252 | -75.42729 | 7017 ft | 2 kts | 229° |
| 2026-04-29 17:01 | 6.17250 | -75.42731 | 7017 ft | 0 kts | 229° |